createdAt,value
2023-05-05T00:02:24.664Z,58.03
2023-05-05T00:04:52.661Z,58.06
2023-05-05T00:07:20.012Z,57.89
2023-05-05T00:09:48.754Z,58.06
2023-05-05T00:12:16.265Z,58.03
2023-05-05T00:14:43.634Z,58.02
2023-05-05T00:17:11.405Z,58.24
2023-05-05T00:19:38.863Z,57.77
2023-05-05T00:22:06.283Z,57.61
2023-05-05T00:24:33.751Z,57.50
2023-05-05T00:27:03.553Z,57.29
2023-05-05T00:29:31.563Z,57.02
2023-05-05T00:31:59.180Z,57.06
2023-05-05T00:34:26.450Z,56.96
2023-05-05T00:36:54.072Z,57.39
2023-05-05T00:39:21.480Z,57.54
2023-05-05T00:41:48.887Z,58.09
2023-05-05T00:44:17.654Z,58.02
2023-05-05T00:46:45.651Z,58.38
2023-05-05T00:49:13.433Z,58.71
2023-05-05T00:51:41.079Z,59.28
2023-05-05T00:54:08.773Z,59.38
2023-05-05T00:56:36.900Z,59.82
2023-05-05T00:59:04.538Z,59.86
2023-05-05T01:01:33.457Z,60.20
2023-05-05T01:04:00.817Z,60.26
2023-05-05T01:06:42.300Z,60.50
2023-05-05T01:09:24.699Z,60.68
2023-05-05T01:12:01.398Z,60.59
2023-05-05T01:14:39.776Z,59.84
2023-05-05T01:17:16.398Z,60.68
2023-05-05T01:20:01.686Z,60.84
2023-05-05T01:22:38.424Z,60.89
2023-05-05T01:25:49.152Z,61.43
2023-05-05T01:28:39.601Z,61.62
2023-05-05T01:31:17.946Z,61.96
2023-05-05T01:33:52.500Z,61.77
2023-05-05T01:36:28.684Z,61.91
2023-05-05T01:38:59.578Z,62.07
2023-05-05T01:41:30.756Z,62.28
2023-05-05T01:44:03.266Z,62.23
2023-05-05T01:46:33.264Z,61.82
2023-05-05T01:49:02.723Z,61.89
2023-05-05T01:51:33.207Z,62.34
2023-05-05T01:54:04.610Z,62.62
2023-05-05T01:56:33.146Z,62.23
2023-05-05T01:59:02.103Z,62.68
2023-05-05T02:01:30.573Z,62.77
2023-05-05T02:03:59.397Z,62.74
2023-05-05T02:06:32.488Z,62.34
2023-05-05T02:09:01.600Z,62.39
2023-05-05T02:11:29.895Z,62.09
2023-05-05T02:16:27.290Z,63.27
2023-05-05T02:18:57.262Z,62.83
2023-05-05T02:21:24.743Z,62.67
2023-05-05T02:23:53.356Z,62.77
2023-05-05T02:26:23.638Z,63.00
2023-05-05T02:28:58.743Z,63.05
2023-05-05T02:33:57.071Z,63.39
2023-05-05T02:36:29.247Z,63.86
2023-05-05T02:39:11.064Z,63.32
2023-05-05T02:41:41.519Z,63.83
2023-05-05T02:44:19.315Z,63.88
2023-05-05T02:46:47.417Z,63.80
2023-05-05T02:49:15.691Z,63.78
2023-05-05T02:51:43.526Z,64.16
2023-05-05T02:54:21.421Z,64.15
2023-05-05T02:56:51.141Z,63.45
2023-05-05T02:59:27.998Z,63.55
2023-05-05T03:02:10.902Z,62.71
2023-05-05T03:04:42.785Z,62.31
2023-05-05T03:07:14.482Z,62.54
2023-05-05T03:09:56.037Z,62.42
2023-05-05T03:12:31.511Z,62.74
2023-05-05T03:15:14.498Z,62.19
2023-05-05T03:17:44.410Z,62.38
2023-05-05T03:20:14.676Z,61.79
2023-05-05T03:22:45.527Z,62.05
2023-05-05T03:25:15.800Z,62.08
2023-05-05T03:27:43.174Z,61.55
2023-05-05T03:30:14.126Z,61.74
2023-05-05T03:32:48.661Z,61.06
2023-05-05T03:35:16.511Z,61.26
2023-05-05T03:37:43.731Z,60.90
2023-05-05T03:40:13.149Z,60.88
2023-05-05T03:42:42.739Z,60.29
2023-05-05T03:45:10.966Z,60.68
2023-05-05T03:47:39.752Z,60.46
2023-05-05T03:50:09.016Z,60.17
2023-05-05T03:52:36.942Z,60.43
2023-05-05T03:55:04.834Z,60.23
2023-05-05T03:57:33.075Z,60.04
2023-05-05T04:00:02.032Z,60.20
2023-05-05T04:02:30.509Z,60.44
2023-05-05T04:04:57.801Z,60.05
2023-05-05T04:07:25.237Z,59.96
2023-05-05T04:09:53.153Z,59.75
2023-05-05T04:12:21.022Z,59.45
2023-05-05T04:14:48.336Z,59.48
2023-05-05T04:17:17.361Z,59.40
2023-05-05T04:19:45.099Z,59.16
2023-05-05T04:22:13.344Z,58.67
2023-05-05T04:24:40.993Z,59.04
2023-05-05T04:27:08.341Z,58.81
2023-05-05T04:29:36.262Z,59.02
2023-05-05T04:32:03.988Z,59.08
2023-05-05T04:34:33.095Z,59.21
2023-05-05T04:37:00.783Z,58.82
2023-05-05T04:39:28.196Z,58.55
2023-05-05T04:41:55.475Z,58.48
2023-05-05T04:44:23.069Z,58.48
2023-05-05T04:46:50.623Z,58.45
2023-05-05T04:49:17.928Z,58.39
2023-05-05T04:51:46.899Z,57.92
2023-05-05T04:54:14.038Z,57.93
2023-05-05T04:56:41.267Z,57.57
2023-05-05T04:59:10.036Z,57.89
2023-05-05T05:01:38.589Z,58.28
2023-05-05T05:04:06.254Z,58.65
2023-05-05T05:06:34.076Z,58.55
2023-05-05T05:09:02.803Z,58.45
2023-05-05T05:11:30.099Z,58.07
2023-05-05T05:13:57.376Z,57.83
2023-05-05T05:16:25.401Z,57.78
2023-05-05T05:18:53.024Z,57.58
2023-05-05T05:21:20.699Z,57.77
2023-05-05T05:23:48.219Z,57.95
2023-05-05T05:26:16.996Z,57.81
2023-05-05T05:28:44.705Z,58.06
2023-05-05T05:31:12.626Z,58.26
2023-05-05T05:33:39.984Z,58.49
2023-05-05T05:36:07.933Z,58.19
2023-05-05T05:38:36.141Z,57.92
2023-05-05T05:41:08.071Z,57.71
2023-05-05T05:43:38.423Z,57.23
2023-05-05T05:46:08.820Z,56.77
2023-05-05T05:48:38.363Z,56.51
2023-05-05T05:51:05.828Z,56.30
2023-05-05T05:53:33.532Z,56.76
2023-05-05T05:56:01.643Z,56.62
2023-05-05T05:58:29.500Z,56.07
2023-05-05T06:00:59.979Z,56.37
2023-05-05T06:03:28.285Z,56.38
2023-05-05T06:05:56.138Z,56.47
2023-05-05T06:08:25.055Z,56.72
2023-05-05T06:10:54.056Z,56.79
2023-05-05T06:13:22.074Z,56.55
2023-05-05T06:15:51.322Z,57.00
2023-05-05T06:18:20.269Z,56.80
2023-05-05T06:20:50.052Z,56.54
2023-05-05T06:23:18.157Z,56.70
2023-05-05T06:25:51.309Z,56.24
2023-05-05T06:28:18.901Z,56.04
2023-05-05T06:30:46.298Z,56.41
2023-05-05T06:33:13.800Z,56.13
2023-05-05T06:35:42.527Z,56.39
2023-05-05T06:38:09.926Z,56.34
2023-05-05T06:40:37.075Z,55.85
2023-05-05T06:43:04.405Z,55.44
2023-05-05T06:45:36.826Z,55.59
2023-05-05T06:48:04.528Z,55.30
2023-05-05T06:50:32.185Z,55.34
2023-05-05T06:53:01.482Z,55.18
2023-05-05T06:55:28.890Z,54.92
2023-05-05T06:57:56.176Z,53.32
2023-05-05T07:00:23.890Z,53.72
2023-05-05T07:02:51.246Z,53.42
2023-05-05T07:05:18.738Z,53.60
2023-05-05T07:07:52.812Z,53.88
2023-05-05T07:10:22.719Z,53.88
2023-05-05T07:12:50.415Z,53.96
2023-05-05T07:15:28.134Z,54.02
2023-05-05T07:17:57.161Z,53.59
2023-05-05T07:20:24.807Z,53.70
2023-05-05T07:22:53.124Z,53.72
2023-05-05T07:25:22.063Z,53.30
2023-05-05T07:27:49.484Z,53.37
2023-05-05T07:30:18.765Z,52.72
2023-05-05T07:32:47.192Z,52.41
2023-05-05T07:35:14.539Z,51.98
2023-05-05T07:37:41.701Z,51.61
2023-05-05T07:40:09.898Z,51.68
2023-05-05T07:42:39.218Z,51.77
2023-05-05T07:45:07.552Z,51.86
2023-05-05T07:47:34.972Z,51.39
2023-05-05T07:50:02.361Z,51.52
2023-05-05T07:52:44.117Z,51.60
2023-05-05T07:55:13.659Z,51.69
2023-05-05T07:57:42.298Z,51.63
2023-05-05T08:00:11.021Z,52.32
2023-05-05T08:02:42.015Z,52.54
2023-05-05T08:05:09.768Z,52.58
2023-05-05T08:07:41.738Z,52.90
2023-05-05T08:10:10.742Z,53.73
2023-05-05T08:12:38.251Z,54.16
2023-05-05T08:15:08.760Z,54.32
2023-05-05T08:17:47.570Z,55.02
2023-05-05T08:20:15.336Z,55.40
2023-05-05T08:22:43.179Z,56.06
2023-05-05T08:25:11.295Z,56.49
2023-05-05T08:27:39.346Z,57.09
2023-05-05T08:30:12.046Z,57.92
2023-05-05T08:32:39.959Z,58.01
2023-05-05T08:35:08.314Z,58.68
2023-05-05T08:37:36.254Z,59.17
2023-05-05T08:40:04.743Z,59.49
2023-05-05T08:42:37.023Z,59.52
2023-05-05T08:45:10.365Z,59.33
2023-05-05T08:47:39.452Z,59.29
2023-05-05T08:50:10.712Z,59.39
2023-05-05T08:52:40.959Z,59.29
2023-05-05T08:55:15.546Z,59.61
2023-05-05T08:57:50.240Z,59.25
2023-05-05T09:00:21.041Z,59.15
2023-05-05T09:02:48.865Z,59.00
2023-05-05T09:05:17.172Z,59.07
2023-05-05T09:07:44.814Z,59.08
2023-05-05T09:10:12.839Z,59.06
2023-05-05T09:12:42.988Z,59.02
2023-05-05T09:15:12.167Z,59.24
2023-05-05T09:17:41.985Z,59.38
2023-05-05T09:20:14.056Z,59.78
2023-05-05T09:23:51.010Z,59.56
2023-05-05T09:26:18.633Z,60.05
2023-05-05T09:28:52.855Z,60.02
2023-05-05T09:31:20.307Z,60.17
2023-05-05T09:33:49.322Z,60.12
2023-05-05T09:36:16.661Z,59.87
2023-05-05T09:39:04.550Z,59.89
2023-05-05T09:41:38.788Z,59.24
2023-05-05T09:44:06.361Z,59.44
2023-05-05T09:46:34.234Z,59.12
2023-05-05T09:49:20.563Z,58.83
2023-05-05T09:51:48.482Z,57.92
2023-05-05T09:54:23.822Z,57.65
2023-05-05T09:56:52.412Z,56.89
2023-05-05T09:59:20.321Z,56.34
2023-05-05T10:01:48.949Z,56.09
2023-05-05T10:04:29.927Z,55.94
2023-05-05T10:06:58.584Z,55.50
2023-05-05T10:09:28.408Z,55.43
2023-05-05T10:11:58.188Z,55.54
2023-05-05T10:14:27.210Z,55.39
2023-05-05T10:16:56.041Z,55.11
2023-05-05T10:19:24.551Z,55.10
2023-05-05T10:21:54.727Z,55.32
2023-05-05T10:24:30.804Z,55.84
2023-05-05T10:27:00.161Z,56.05
2023-05-05T10:29:37.131Z,56.70
2023-05-05T10:32:33.465Z,56.37
2023-05-05T10:35:01.582Z,56.18
2023-05-05T10:37:33.925Z,56.10
2023-05-05T10:40:02.261Z,55.72
2023-05-05T10:42:32.418Z,55.95
2023-05-05T10:44:59.766Z,55.79
2023-05-05T10:47:28.732Z,55.41
2023-05-05T10:50:02.525Z,55.62
2023-05-05T10:52:37.520Z,55.08
2023-05-05T10:55:13.925Z,55.13
2023-05-05T10:57:43.991Z,54.54
2023-05-05T11:00:49.161Z,54.39
2023-05-05T11:03:21.908Z,54.67
2023-05-05T11:06:12.685Z,54.67
2023-05-05T11:08:43.060Z,54.25
2023-05-05T11:11:11.482Z,54.31
2023-05-05T11:13:40.077Z,53.87
2023-05-05T11:16:51.361Z,53.59
2023-05-05T11:19:47.854Z,53.50
2023-05-05T11:22:16.650Z,53.26
2023-05-05T11:24:45.875Z,52.81
2023-05-05T11:27:16.007Z,52.32
2023-05-05T11:30:07.005Z,52.02
2023-05-05T11:32:36.109Z,52.24
2023-05-05T11:35:04.238Z,52.45
2023-05-05T11:37:32.549Z,52.57
2023-05-05T11:40:16.726Z,52.46
2023-05-05T11:42:44.145Z,52.28
2023-05-05T11:45:22.611Z,52.51
2023-05-05T11:47:50.466Z,51.95
2023-05-05T11:50:21.004Z,51.85
2023-05-05T11:52:48.775Z,51.68
2023-05-05T11:55:23.718Z,51.72
2023-05-05T11:57:51.330Z,51.69
2023-05-05T12:00:19.345Z,51.40
2023-05-05T12:02:47.149Z,51.35
2023-05-05T12:05:20.582Z,51.49
2023-05-05T12:07:48.389Z,51.43
2023-05-05T12:10:25.027Z,50.90
2023-05-05T12:12:55.475Z,50.45
2023-05-05T12:15:30.768Z,49.93
2023-05-05T12:18:00.127Z,49.85
2023-05-05T12:20:31.814Z,49.37
2023-05-05T12:23:04.151Z,49.49
2023-05-05T12:25:39.791Z,49.16
2023-05-05T12:28:08.813Z,48.04
2023-05-05T12:30:36.333Z,47.38
2023-05-05T12:33:04.981Z,47.28
2023-05-05T12:35:33.451Z,46.63
2023-05-05T12:38:00.862Z,46.25
2023-05-05T12:40:47.490Z,46.19
2023-05-05T12:43:29.560Z,46.60
2023-05-05T12:46:01.951Z,47.24
2023-05-05T12:51:54.815Z,47.25
2023-05-05T12:54:29.597Z,46.92
2023-05-05T12:56:58.927Z,46.22
2023-05-05T12:59:30.298Z,44.53
2023-05-05T13:02:00.181Z,44.53
2023-05-05T13:04:29.156Z,43.96
2023-05-05T13:07:11.283Z,43.85
2023-05-05T13:09:38.951Z,43.21
2023-05-05T13:12:14.237Z,42.43
2023-05-05T13:14:42.058Z,42.09
2023-05-05T13:17:11.084Z,41.12
2023-05-05T13:19:42.664Z,40.08
2023-05-05T13:22:10.539Z,39.73
2023-05-05T13:24:47.120Z,39.95
2023-05-05T13:27:19.315Z,40.92
2023-05-05T13:29:46.868Z,41.33
2023-05-05T13:32:14.436Z,42.63
2023-05-05T13:34:43.665Z,42.61
2023-05-05T13:37:11.215Z,42.09
2023-05-05T13:39:38.660Z,41.57
2023-05-05T13:42:06.266Z,40.55
2023-05-05T13:44:35.759Z,40.21
2023-05-05T13:47:03.407Z,39.87
2023-05-05T13:49:30.808Z,39.86
2023-05-05T13:51:58.608Z,39.51
2023-05-05T13:54:26.225Z,39.40
2023-05-05T13:56:53.751Z,38.32
2023-05-05T13:59:21.944Z,39.21
2023-05-05T14:02:28.118Z,38.48
2023-05-05T14:04:57.223Z,38.22
2023-05-05T14:07:31.197Z,37.35
2023-05-05T14:11:03.975Z,37.17
2023-05-05T14:13:31.575Z,37.35
2023-05-05T14:15:59.001Z,36.75
2023-05-05T14:18:28.413Z,36.26
2023-05-05T14:21:02.706Z,36.18
2023-05-05T14:23:30.149Z,35.57
2023-05-05T14:25:57.865Z,36.05
2023-05-05T14:28:25.146Z,36.99
2023-05-05T14:30:52.580Z,36.77
2023-05-05T14:33:19.874Z,36.81
2023-05-05T14:35:47.360Z,36.63
2023-05-05T14:38:20.562Z,36.18
2023-05-05T14:40:48.312Z,36.09
2023-05-05T14:43:18.390Z,36.82
2023-05-05T14:45:51.148Z,37.22
2023-05-05T14:48:26.155Z,37.35
2023-05-05T14:50:55.242Z,37.39
2023-05-05T14:53:31.970Z,37.66
2023-05-05T14:56:10.239Z,38.26
2023-05-05T14:58:37.752Z,38.29
2023-05-05T15:01:05.351Z,38.29
2023-05-05T15:03:33.289Z,38.17
2023-05-05T15:06:00.829Z,37.96
2023-05-05T15:08:29.738Z,38.10
2023-05-05T15:10:57.178Z,38.04
2023-05-05T15:13:24.742Z,37.67
2023-05-05T15:15:52.107Z,37.91
2023-05-05T15:18:19.526Z,37.28
2023-05-05T15:20:46.891Z,37.26
2023-05-05T15:23:14.264Z,37.17
2023-05-05T15:25:43.241Z,37.24
2023-05-05T15:28:10.598Z,38.12
2023-05-05T15:30:38.032Z,38.45
2023-05-05T15:33:05.859Z,38.44
2023-05-05T15:35:33.366Z,38.50
2023-05-05T15:38:00.724Z,39.01
2023-05-05T15:40:28.126Z,39.03
2023-05-05T15:42:57.556Z,38.97
2023-05-05T15:45:25.124Z,39.45
2023-05-05T15:47:53.831Z,39.29
2023-05-05T15:50:21.993Z,39.58
2023-05-05T15:52:50.144Z,39.67
2023-05-05T15:55:17.748Z,39.91
2023-05-05T15:57:45.096Z,39.76
2023-05-05T16:00:15.144Z,40.03
2023-05-05T16:02:42.664Z,40.23
2023-05-05T16:05:10.775Z,39.96
2023-05-05T16:07:38.467Z,40.06
2023-05-05T16:10:06.874Z,40.55
2023-05-05T16:12:34.167Z,40.29
2023-05-05T16:15:01.777Z,40.28
2023-05-05T16:17:33.535Z,40.39
2023-05-05T16:20:00.992Z,40.02
2023-05-05T16:22:30.686Z,40.35
2023-05-05T16:24:58.123Z,40.31
2023-05-05T16:27:26.602Z,40.21
2023-05-05T16:29:54.017Z,40.77
2023-05-05T16:32:28.367Z,40.70
2023-05-05T16:35:09.381Z,40.73
2023-05-05T16:37:37.128Z,41.08
2023-05-05T16:40:23.600Z,41.01
2023-05-05T16:42:53.185Z,40.89
2023-05-05T16:45:20.454Z,41.22
2023-05-05T16:47:56.689Z,41.41
2023-05-05T16:50:33.562Z,41.45
2023-05-05T16:53:01.059Z,41.30
2023-05-05T16:55:28.509Z,41.38
2023-05-05T16:57:56.309Z,41.54
2023-05-05T17:00:23.862Z,41.91
2023-05-05T17:02:51.314Z,41.93
2023-05-05T17:05:18.839Z,41.81
2023-05-05T17:07:50.365Z,42.08
2023-05-05T17:10:17.878Z,42.09
2023-05-05T17:12:45.356Z,42.11
2023-05-05T17:15:12.881Z,42.65
2023-05-05T17:17:42.341Z,42.53
2023-05-05T17:20:12.185Z,42.73
2023-05-05T17:22:40.033Z,42.63
2023-05-05T17:25:10.195Z,42.60
2023-05-05T17:27:37.938Z,42.90
2023-05-05T17:30:06.828Z,43.08
2023-05-05T17:32:34.460Z,43.28
2023-05-05T17:35:01.893Z,43.83
2023-05-05T17:37:32.447Z,43.97
2023-05-05T17:39:59.928Z,44.22
2023-05-05T17:42:33.108Z,44.47
2023-05-05T17:45:00.790Z,44.84
2023-05-05T17:47:28.473Z,44.85
2023-05-05T17:49:56.919Z,44.63
2023-05-05T17:52:24.832Z,45.42
2023-05-05T17:54:52.670Z,45.12
2023-05-05T17:57:21.307Z,46.08
2023-05-05T17:59:50.581Z,45.87
2023-05-05T18:02:19.200Z,46.53
2023-05-05T18:04:46.734Z,46.04
2023-05-05T18:07:14.861Z,46.54
2023-05-05T18:09:42.460Z,46.65
2023-05-05T18:12:09.712Z,46.91
2023-05-05T18:14:37.194Z,47.47
2023-05-05T18:17:06.128Z,47.36
2023-05-05T18:19:33.406Z,47.23
2023-05-05T18:22:00.949Z,47.13
2023-05-05T18:24:28.360Z,48.40
2023-05-05T18:26:55.703Z,47.78
2023-05-05T18:29:23.142Z,48.13
2023-05-05T18:31:53.037Z,48.58
2023-05-05T18:34:22.195Z,49.28
2023-05-05T18:36:51.407Z,49.08
2023-05-05T18:39:19.354Z,49.21
2023-05-05T18:41:46.965Z,49.10
2023-05-05T18:44:14.354Z,49.22
2023-05-05T18:46:43.357Z,49.08
2023-05-05T18:49:10.683Z,49.07
2023-05-05T18:51:39.596Z,48.29
2023-05-05T18:54:07.002Z,48.40
2023-05-05T18:56:34.553Z,49.89
2023-05-05T18:59:02.005Z,50.26
2023-05-05T19:01:29.511Z,49.43
2023-05-05T19:03:57.177Z,49.70
2023-05-05T19:06:24.653Z,50.17
2023-05-05T19:08:53.624Z,50.26
2023-05-05T19:11:21.002Z,50.91
2023-05-05T19:13:48.420Z,51.14
2023-05-05T19:16:16.031Z,51.24
2023-05-05T19:18:43.738Z,50.10
2023-05-05T19:21:11.205Z,51.36
2023-05-05T19:23:38.911Z,51.17
2023-05-05T19:26:07.780Z,51.52
2023-05-05T19:28:35.115Z,52.22
2023-05-05T19:31:02.602Z,52.25
2023-05-05T19:33:30.017Z,52.36
2023-05-05T19:35:57.544Z,51.56
2023-05-05T19:38:25.053Z,52.20
2023-05-05T19:40:54.171Z,51.85
2023-05-05T19:43:23.435Z,50.98
2023-05-05T19:45:50.763Z,51.00
2023-05-05T19:48:18.206Z,50.94
2023-05-05T19:50:45.572Z,50.17
2023-05-05T19:53:13.010Z,50.86
2023-05-05T19:55:46.317Z,50.62
2023-05-05T19:58:14.181Z,50.53
2023-05-05T20:00:43.114Z,50.31
2023-05-05T20:03:11.223Z,50.58
2023-05-05T20:05:38.930Z,50.96
2023-05-05T20:08:06.344Z,51.63
2023-05-05T20:10:33.803Z,50.91
2023-05-05T20:13:01.392Z,51.27
2023-05-05T20:15:28.895Z,51.58
2023-05-05T20:17:58.308Z,52.10
2023-05-05T20:20:25.888Z,51.75
2023-05-05T20:22:53.605Z,51.81
2023-05-05T20:25:20.931Z,51.23
2023-05-05T20:27:48.527Z,51.99
2023-05-05T20:30:16.240Z,51.18
2023-05-05T20:32:43.643Z,51.07
2023-05-05T20:35:15.927Z,51.46
2023-05-05T20:37:45.257Z,50.93
2023-05-05T20:40:13.710Z,50.65
2023-05-05T20:42:41.330Z,51.37
2023-05-05T20:45:10.741Z,51.21
2023-05-05T20:47:38.331Z,51.05
2023-05-05T20:50:09.773Z,51.45
2023-05-05T20:52:58.930Z,52.01
2023-05-05T20:55:42.811Z,51.47
2023-05-05T20:58:10.161Z,51.38
2023-05-05T21:00:37.515Z,51.58
2023-05-05T21:03:05.147Z,52.02
2023-05-05T21:05:32.723Z,52.35
2023-05-05T21:08:01.967Z,52.13
2023-05-05T21:10:29.462Z,52.28
2023-05-05T21:12:57.018Z,51.83
2023-05-05T21:15:25.073Z,51.63
2023-05-05T21:17:52.422Z,51.39
2023-05-05T21:20:20.078Z,52.28
2023-05-05T21:22:47.314Z,52.25
2023-05-05T21:25:17.324Z,52.24
2023-05-05T21:27:45.009Z,51.78
2023-05-05T21:30:13.105Z,52.16
2023-05-05T21:32:41.331Z,52.29
2023-05-05T21:35:09.565Z,52.37
2023-05-05T21:37:37.560Z,52.84
2023-05-05T21:40:06.152Z,53.06
2023-05-05T21:42:35.562Z,52.96
2023-05-05T21:45:03.228Z,53.21
2023-05-05T21:47:32.213Z,52.51
2023-05-05T21:49:59.663Z,52.92
2023-05-05T21:52:27.095Z,53.12
2023-05-05T21:54:54.529Z,52.77
2023-05-05T21:57:22.044Z,53.35
2023-05-05T21:59:51.043Z,53.05
2023-05-05T22:02:18.596Z,53.23
2023-05-05T22:04:48.788Z,53.08
2023-05-05T22:07:16.495Z,52.97
2023-05-05T22:09:43.865Z,53.20
2023-05-05T22:12:11.576Z,53.73
2023-05-05T22:14:39.093Z,53.17
2023-05-05T22:17:07.987Z,52.92
2023-05-05T22:19:35.333Z,52.75
2023-05-05T22:22:03.071Z,53.26
2023-05-05T22:24:30.612Z,53.35
2023-05-05T22:26:58.387Z,52.87
2023-05-05T22:29:47.152Z,53.06
2023-05-05T22:32:16.092Z,53.22
2023-05-05T22:34:43.408Z,53.55
2023-05-05T22:37:10.774Z,53.49
2023-05-05T22:39:38.427Z,53.57
2023-05-05T22:42:06.078Z,53.39
2023-05-05T22:44:33.415Z,53.31
2023-05-05T22:47:01.207Z,53.25
2023-05-05T22:49:30.137Z,53.07
2023-05-05T22:51:57.974Z,53.29
2023-05-05T22:54:25.423Z,53.54
2023-05-05T22:56:52.901Z,53.80
2023-05-05T22:59:20.507Z,54.42
2023-05-05T23:01:48.206Z,53.82
2023-05-05T23:04:15.889Z,53.91
2023-05-05T23:06:45.085Z,54.20
2023-05-05T23:09:12.923Z,54.15
2023-05-05T23:11:40.488Z,54.29
2023-05-05T23:14:07.942Z,54.18
2023-05-05T23:16:35.313Z,54.38
2023-05-05T23:19:02.811Z,54.77
2023-05-05T23:21:32.071Z,54.44
2023-05-05T23:24:02.710Z,54.80
2023-05-05T23:26:30.777Z,54.60
2023-05-05T23:28:58.272Z,54.92
2023-05-05T23:31:26.012Z,54.90
2023-05-05T23:33:53.445Z,54.58
2023-05-05T23:36:20.693Z,55.08
2023-05-05T23:38:48.250Z,55.14
2023-05-05T23:41:18.443Z,55.15
2023-05-05T23:43:45.837Z,55.17
2023-05-05T23:46:13.399Z,55.36
2023-05-05T23:48:40.860Z,55.32
2023-05-05T23:51:08.449Z,55.67
2023-05-05T23:53:35.853Z,55.65
2023-05-05T23:56:03.514Z,55.72
2023-05-05T23:58:32.469Z,55.41
